North Buena Vista, Iowa
Current Conditions -  °F | °C
As of 8:53 AM on Saturday 25 Oct 2014 (Local Time) from KDBQ Reporting Station
Clear Clear  
Wind Chill: 58°   Ceiling: Unl
Heat Index: 58°   Visibility: 10mi
Dew Point: 44°   Wind: 10mph
Humidity: 60%   Direction: 320°NW
Pressure: 30.01"   Gusts: NA
Location:  42.68°N, 90.96°W
Report Text: KDBQ 251353Z 32009KT 10SM CLR 14/07 A3001 RMK AO2 SLP161 T01440067
Loading
Personal Weather Stations






























Interactive Weather Map
Tropical Storm Tracking
New forecast layout! Learn more

10-Day Weather Forecast

Advertisements
Track Severe Weather on mobile